Time;durP1;ratioP1;P1;durP2;ratioP2;P2;SDS_P1;SDS_P2;PMS_P1;PMS_P2;Temp;Humidity;BMP_temperature;BMP_pressure;BME280_temperature;BME280_humidity;BME280_pressure;Samples;Min_cycle;Max_cycle;Signal;HPM_P1;HPM_P2
2021/01/29 00:00:29;;;;;;;1.65;1.05;;;19.70;45.50;;;;;;5012592;28;20128;-40
2021/01/29 00:02:58;;;;;;;1.15;0.98;;;19.70;45.40;;;;;;5011870;28;20084;-40
2021/01/29 00:05:30;;;;;;;0.95;0.82;;;19.70;45.50;;;;;;5010044;28;20107;-40
2021/01/29 00:07:57;;;;;;;1.27;1.00;;;19.70;45.50;;;;;;5011178;28;20049;-40
2021/01/29 00:10:24;;;;;;;1.17;0.82;;;19.70;45.50;;;;;;5026269;28;20061;-40
2021/01/29 00:12:52;;;;;;;1.10;1.00;;;19.70;45.40;;;;;;5009865;28;20076;-41
2021/01/29 00:15:21;;;;;;;1.17;0.93;;;19.70;45.50;;;;;;5011141;28;20050;-40
2021/01/29 00:17:49;;;;;;;1.10;0.90;;;19.70;45.50;;;;;;5010909;28;20073;-40
2021/01/29 00:20:21;;;;;;;1.48;1.17;;;19.70;45.50;;;;;;5011095;28;20490;-40
2021/01/29 00:22:49;;;;;;;1.38;1.00;;;19.70;45.50;;;;;;5011040;28;20512;-40
2021/01/29 00:25:21;;;;;;;1.67;0.90;;;19.70;45.50;;;;;;5008470;28;20549;-40
2021/01/29 00:27:49;;;;;;;1.02;0.80;;;19.70;45.50;;;;;;5012001;28;20054;-40
2021/01/29 00:30:18;;;;;;;1.42;1.00;;;19.70;45.50;;;;;;5011647;28;20050;-39
2021/01/29 00:32:45;;;;;;;1.08;0.95;;;19.70;45.50;;;;;;5011343;28;20061;-40
2021/01/29 00:35:13;;;;;;;1.50;1.10;;;19.70;45.50;;;;;;5012267;28;20080;-42
2021/01/29 00:37:40;;;;;;;1.13;0.90;;;19.70;45.50;;;;;;5025618;28;20081;-40
2021/01/29 00:40:08;;;;;;;1.83;1.35;;;19.70;45.50;;;;;;5010647;28;20045;-40
2021/01/29 00:42:35;;;;;;;1.20;1.00;;;19.70;45.50;;;;;;5010903;28;20125;-40
2021/01/29 00:45:02;;;;;;;1.58;1.00;;;19.70;45.50;;;;;;5010709;28;20124;-40
2021/01/29 00:47:29;;;;;;;1.27;0.70;;;19.70;45.50;;;;;;5010546;28;20069;-39
2021/01/29 00:49:55;;;;;;;1.40;1.20;;;19.70;45.50;;;;;;5009469;28;20136;-41
2021/01/29 00:52:22;;;;;;;0.88;0.80;;;19.60;45.40;;;;;;5009115;28;20096;-40
2021/01/29 00:54:49;;;;;;;1.00;0.80;;;19.70;45.50;;;;;;5010983;28;20442;-39
2021/01/29 00:57:16;;;;;;;1.20;0.93;;;19.70;45.60;;;;;;5010911;28;20056;-40
2021/01/29 00:59:42;;;;;;;0.90;0.80;;;19.60;45.40;;;;;;5012053;28;20065;-40
2021/01/29 01:02:09;;;;;;;0.88;0.82;;;19.60;45.40;;;;;;5021096;28;20049;-40
2021/01/29 01:04:36;;;;;;;1.30;0.90;;;19.60;45.40;;;;;;5012558;28;20046;-40
2021/01/29 01:07:03;;;;;;;1.20;0.82;;;19.70;45.50;;;;;;5010495;28;20140;-42
2021/01/29 01:09:29;;;;;;;1.13;0.80;;;19.70;45.50;;;;;;5009033;28;20088;-40
2021/01/29 01:11:56;;;;;;;1.05;0.95;;;19.70;45.50;;;;;;5008968;28;20048;-40
2021/01/29 01:14:23;;;;;;;1.13;1.02;;;19.70;45.50;;;;;;5011683;28;20050;-40
2021/01/29 01:16:50;;;;;;;1.10;0.93;;;19.70;45.50;;;;;;5008956;28;20096;-41
2021/01/29 01:19:17;;;;;;;1.13;0.88;;;19.60;45.40;;;;;;5011730;28;20056;-40
2021/01/29 01:21:43;;;;;;;1.58;1.00;;;19.60;45.50;;;;;;5027812;28;20042;-40
2021/01/29 01:24:10;;;;;;;1.13;0.93;;;19.60;46.10;;;;;;5015758;28;20081;-40
2021/01/29 01:26:37;;;;;;;1.00;0.90;;;19.60;45.40;;;;;;5013319;28;20064;-41
2021/01/29 01:29:04;;;;;;;1.40;1.00;;;19.70;45.60;;;;;;5012689;28;20129;-40
2021/01/29 01:31:31;;;;;;;1.20;1.00;;;19.60;45.40;;;;;;5014051;28;20049;-41
2021/01/29 01:33:58;;;;;;;1.23;0.93;;;19.60;45.50;;;;;;5014268;28;20046;-40
2021/01/29 01:36:24;;;;;;;1.45;1.05;;;19.60;45.50;;;;;;5014103;28;20395;-39
2021/01/29 01:38:51;;;;;;;1.05;0.80;;;19.60;45.50;;;;;;5013664;28;20125;-40
2021/01/29 01:41:19;;;;;;;1.33;0.70;;;19.60;45.50;;;;;;5014229;28;20417;-41
2021/01/29 01:43:46;;;;;;;1.00;0.88;;;19.60;45.50;;;;;;5012908;28;20046;-43
2021/01/29 01:46:15;;;;;;;0.80;0.70;;;19.60;45.50;;;;;;5013790;28;20058;-40
2021/01/29 01:49:07;;;;;;;1.35;1.02;;;19.60;45.50;;;;;;5012434;28;20125;-41
2021/01/29 01:51:39;;;;;;;1.35;0.80;;;19.60;45.50;;;;;;5014172;28;20042;-40
2021/01/29 01:54:34;;;;;;;1.10;0.80;;;19.60;45.50;;;;;;5013969;28;20076;-39
2021/01/29 01:57:01;;;;;;;;;;;19.60;45.50;;;;;;5012542;28;20121;-41
2021/01/29 01:59:36;;;;;;;0.63;0.63;;;19.60;45.50;;;;;;5014018;28;20020;-40
2021/01/29 02:02:05;;;;;;;1.13;0.90;;;19.60;45.50;;;;;;5019276;28;20049;-40
2021/01/29 02:04:37;;;;;;;1.40;1.20;;;19.60;45.60;;;;;;5014609;28;20050;-41
2021/01/29 02:07:28;;;;;;;1.10;1.00;;;19.60;45.60;;;;;;5014889;28;20065;-40
2021/01/29 02:09:58;;;;;;;1.73;1.10;;;19.60;45.60;;;;;;5014732;28;20081;-40
2021/01/29 02:12:25;;;;;;;1.00;0.80;;;19.60;45.60;;;;;;5013955;28;20077;-40
2021/01/29 02:14:51;;;;;;;1.23;1.10;;;19.60;45.60;;;;;;5013235;28;20046;-40
2021/01/29 02:17:39;;;;;;;1.08;0.70;;;19.60;45.60;;;;;;5014478;28;20081;-41
2021/01/29 02:20:23;;;;;;;1.20;0.75;;;19.60;45.60;;;;;;5013326;28;20056;-40
2021/01/29 02:23:11;;;;;;;1.10;0.88;;;19.60;45.60;;;;;;5012160;28;20057;-40
2021/01/29 02:25:43;;;;;;;1.30;0.90;;;19.60;45.60;;;;;;5012011;28;20077;-40
2021/01/29 02:28:38;;;;;;;1.50;1.00;;;19.60;45.60;;;;;;5012906;28;20054;-40
2021/01/29 02:31:32;;;;;;;0.88;0.82;;;19.60;45.60;;;;;;5011640;28;20496;-40
2021/01/29 02:34:13;;;;;;;1.38;1.00;;;19.60;45.60;;;;;;5013458;28;20060;-40
2021/01/29 02:37:03;;;;;;;1.02;0.80;;;19.60;45.60;;;;;;5013480;28;20053;-40
2021/01/29 02:39:45;;;;;;;0.85;0.80;;;19.60;45.60;;;;;;5013319;28;20124;-40
2021/01/29 02:42:21;;;;;;;1.15;0.90;;;19.60;45.60;;;;;;5013536;28;20409;-40
2021/01/29 02:44:55;;;;;;;1.15;0.90;;;19.60;45.60;;;;;;5008014;28;20081;-40
2021/01/29 02:47:32;;;;;;;1.02;0.93;;;19.60;45.60;;;;;;5012123;28;20122;-40
2021/01/29 02:50:15;;;;;;;1.35;0.77;;;19.60;45.60;;;;;;5011726;28;20057;-40
2021/01/29 02:53:10;;;;;;;1.45;1.00;;;19.60;45.60;;;;;;5012986;28;20476;-41
2021/01/29 02:55:58;;;;;;;1.15;0.98;;;19.60;45.60;;;;;;5012249;28;20050;-40
2021/01/29 02:58:38;;;;;;;0.70;0.60;;;19.60;45.60;;;;;;5013059;28;20049;-40
2021/01/29 03:01:15;;;;;;;1.13;0.90;;;19.50;45.60;;;;;;5014203;28;20049;-40
2021/01/29 03:04:05;;;;;;;1.23;0.82;;;19.50;45.60;;;;;;5011991;28;20112;-40
2021/01/29 03:07:12;;;;;;;1.33;0.90;;;19.60;45.60;;;;;;5013176;28;20046;-40
2021/01/29 03:09:50;;;;;;;0.95;0.80;;;19.60;45.60;;;;;;5010974;28;20092;-40
2021/01/29 03:12:29;;;;;;;1.02;0.80;;;19.50;45.60;;;;;;5011630;28;20052;-40
2021/01/29 03:15:32;;;;;;;1.42;0.95;;;19.50;45.60;;;;;;5013453;28;20045;-42
2021/01/29 03:18:05;;;;;;;1.27;0.80;;;19.50;45.60;;;;;;4957422;28;20038;-40
2021/01/29 03:20:36;;;;;;;1.42;1.10;;;19.50;45.60;;;;;;4971027;28;20122;-40
2021/01/29 03:23:31;;;;;;;1.05;0.80;;;19.50;45.60;;;;;;4972452;28;20141;-40
2021/01/29 03:26:03;;;;;;;1.15;0.85;;;19.50;45.60;;;;;;4963051;28;20113;-40
2021/01/29 03:28:38;;;;;;;0.90;0.80;;;19.50;45.60;;;;;;4973333;28;20055;-40
2021/01/29 03:31:06;;;;;;;1.00;0.80;;;19.50;45.60;;;;;;4972189;28;20129;-40
2021/01/29 03:33:37;;;;;;;0.90;0.80;;;19.50;45.60;;;;;;4972195;28;20129;-40
2021/01/29 03:36:07;;;;;;;1.20;1.00;;;19.50;45.60;;;;;;4971029;28;20133;-40
2021/01/29 03:38:51;;;;;;;1.00;0.90;;;19.50;45.60;;;;;;4972701;28;20636;-40
2021/01/29 03:41:25;;;;;;;1.67;1.00;;;19.50;45.60;;;;;;4971671;28;20130;-40
2021/01/29 03:43:55;;;;;;;1.00;0.70;;;19.50;45.60;;;;;;4971150;28;20510;-40
2021/01/29 03:46:46;;;;;;;0.80;0.77;;;19.50;45.60;;;;;;4971530;28;20058;-40
2021/01/29 03:49:21;;;;;;;1.10;0.90;;;19.50;46.20;;;;;;4971369;28;20057;-40
2021/01/29 03:51:53;;;;;;;0.98;0.88;;;19.50;45.60;;;;;;4971208;28;20130;-40
2021/01/29 03:54:45;;;;;;;1.45;1.05;;;19.50;45.60;;;;;;5003662;28;20417;-40
2021/01/29 03:57:30;;;;;;;1.10;0.85;;;19.50;45.60;;;;;;5011609;28;20050;-40
2021/01/29 04:00:05;;;;;;;;;;;19.50;45.60;;;;;;5010297;28;20054;-41
2021/01/29 04:02:44;;;;;;;1.00;0.73;;;19.50;45.60;;;;;;5012652;28;19944;-42
2021/01/29 04:06:00;;;;;;;0.77;0.77;;;19.50;45.60;;;;;;5011480;28;20049;-40
2021/01/29 04:08:36;;;;;;;1.30;0.90;;;19.50;45.60;;;;;;5008198;28;20108;-39
2021/01/29 04:11:08;;;;;;;1.08;0.82;;;19.50;45.60;;;;;;5011417;28;20089;-40
2021/01/29 04:13:43;;;;;;;1.10;1.00;;;19.50;45.60;;;;;;5011205;28;20117;-41
2021/01/29 04:16:19;;;;;;;1.02;0.90;;;19.50;45.60;;;;;;5011098;28;20107;-40
2021/01/29 04:18:50;;;;;;;1.08;0.90;;;19.50;45.60;;;;;;5010902;28;20046;-40
2021/01/29 04:21:20;;;;;;;0.70;0.70;;;19.50;45.60;;;;;;5012193;28;20069;-39
2021/01/29 04:24:02;;;;;;;1.20;0.80;;;19.50;45.60;;;;;;5011062;28;20406;-40
2021/01/29 04:26:42;;;;;;;0.85;0.82;;;19.50;45.60;;;;;;5024459;28;20049;-41
2021/01/29 04:29:22;;;;;;;1.00;0.90;;;19.50;45.60;;;;;;5011819;28;20123;-41
2021/01/29 04:31:53;;;;;;;0.98;0.80;;;19.50;45.70;;;;;;5009811;28;20046;-40
2021/01/29 04:34:26;;;;;;;0.90;0.80;;;19.50;45.60;;;;;;5012107;28;20072;-40
2021/01/29 04:36:55;;;;;;;1.00;0.80;;;19.50;45.60;;;;;;5011029;28;20061;-39
2021/01/29 04:39:39;;;;;;;0.95;0.70;;;19.50;45.60;;;;;;5009366;28;20084;-40
2021/01/29 04:42:34;;;;;;;0.93;0.70;;;19.50;46.20;;;;;;5010956;28;20050;-40
2021/01/29 04:45:32;;;;;;;0.82;0.70;;;19.50;45.60;;;;;;5009306;28;20057;-40
2021/01/29 04:48:36;;;;;;;1.17;1.00;;;19.50;45.60;;;;;;5009350;28;20108;-41
2021/01/29 04:51:40;;;;;;;1.00;0.75;;;19.50;45.60;;;;;;5026114;28;20096;-40
2021/01/29 04:54:21;;;;;;;0.77;0.70;;;19.50;45.60;;;;;;5010148;28;20045;-40
2021/01/29 04:57:20;;;;;;;0.75;0.68;;;19.50;45.60;;;;;;5009394;28;20383;-40
2021/01/29 04:59:53;;;;;;;1.02;0.82;;;19.50;45.80;;;;;;5010001;28;20115;-39
2021/01/29 05:02:43;;;;;;;0.82;0.75;;;19.50;45.60;;;;;;5022170;28;20053;-40
2021/01/29 05:05:47;;;;;;;1.10;1.00;;;19.50;45.70;;;;;;5009931;28;20125;-40
2021/01/29 05:08:37;;;;;;;0.93;0.80;;;19.50;45.70;;;;;;4990053;28;20116;-40
2021/01/29 05:11:24;;;;;;;0.88;0.60;;;19.50;45.60;;;;;;4989572;28;20137;-40
2021/01/29 05:14:27;;;;;;;0.82;0.80;;;19.50;46.20;;;;;;4973094;28;20086;-40
2021/01/29 05:17:06;;;;;;;1.05;0.82;;;19.50;45.60;;;;;;4975603;28;20047;-40
2021/01/29 05:20:00;;;;;;;0.98;0.60;;;19.50;45.70;;;;;;4989417;28;20061;-40
2021/01/29 05:23:03;;;;;;;0.73;0.70;;;19.50;45.60;;;;;;4989504;28;20124;-39
2021/01/29 05:25:32;;;;;;;1.13;0.82;;;19.50;45.60;;;;;;4988105;28;20046;-40
2021/01/29 05:28:10;;;;;;;0.98;0.75;;;19.50;45.70;;;;;;4989411;28;20137;-42
2021/01/29 05:31:10;;;;;;;1.08;0.90;;;19.50;45.70;;;;;;4989153;28;20046;-40
2021/01/29 05:34:08;;;;;;;1.00;0.70;;;19.50;45.60;;;;;;4989473;28;20045;-40
2021/01/29 05:37:12;;;;;;;1.10;0.80;;;19.50;45.60;;;;;;4963509;28;20100;-42
2021/01/29 05:39:41;;;;;;;1.17;0.90;;;19.50;45.70;;;;;;4989188;28;20058;-40
2021/01/29 05:42:13;;;;;;;0.80;0.60;;;19.50;45.60;;;;;;4989494;28;20085;-40
2021/01/29 05:45:18;;;;;;;0.70;0.70;;;19.50;45.70;;;;;;5005823;28;20046;-40
2021/01/29 05:48:11;;;;;;;0.75;0.68;;;19.50;45.60;;;;;;5009398;28;20053;-39
2021/01/29 05:51:02;;;;;;;0.55;0.55;;;19.50;45.60;;;;;;5010336;28;20045;-40
2021/01/29 05:53:47;;;;;;;1.00;0.73;;;19.50;45.60;;;;;;5011360;28;20046;-40
2021/01/29 05:56:26;;;;;;;1.10;0.85;;;19.50;45.60;;;;;;5010345;28;20050;-40
2021/01/29 05:59:28;;;;;;;0.60;0.60;;;19.50;45.60;;;;;;5010051;28;20082;-40
2021/01/29 06:02:23;;;;;;;0.75;0.68;;;19.50;45.60;;;;;;5018959;28;20119;-40
2021/01/29 06:05:16;;;;;;;1.05;0.85;;;19.50;45.60;;;;;;5011303;28;20053;-40
2021/01/29 06:08:20;;;;;;;1.23;0.90;;;19.50;45.60;;;;;;5013886;28;20407;-42
2021/01/29 06:11:28;;;;;;;0.88;0.80;;;19.50;45.60;;;;;;5011977;28;20081;-40
2021/01/29 06:14:34;;;;;;;0.90;0.70;;;19.50;45.60;;;;;;4961889;28;20126;-40
2021/01/29 06:17:15;;;;;;;0.73;0.70;;;19.50;45.60;;;;;;4973236;28;20530;-40
2021/01/29 06:20:05;;;;;;;1.00;0.80;;;19.50;45.60;;;;;;4971734;28;20119;-40
2021/01/29 06:22:55;;;;;;;1.33;0.80;;;19.50;45.60;;;;;;4972998;28;20081;-40
2021/01/29 06:25:56;;;;;;;1.40;0.90;;;19.50;45.60;;;;;;4971831;28;20557;-40
2021/01/29 06:28:26;;;;;;;1.20;0.90;;;19.50;45.60;;;;;;4973097;28;20059;-39
2021/01/29 06:31:16;;;;;;;1.00;0.65;;;19.50;45.60;;;;;;4956334;28;20164;-39
2021/01/29 06:33:57;;;;;;;1.25;0.88;;;19.50;45.60;;;;;;4972540;28;20050;-41
2021/01/29 06:36:24;;;;;;;0.65;0.60;;;19.50;45.60;;;;;;4972471;28;20050;-40
2021/01/29 06:39:17;;;;;;;0.93;0.65;;;19.50;45.60;;;;;;4956534;28;20141;-41
2021/01/29 06:41:59;;;;;;;1.13;0.70;;;19.50;45.60;;;;;;4971075;28;20047;-40
2021/01/29 06:45:00;;;;;;;0.90;0.73;;;19.60;45.70;;;;;;4972410;28;20078;-42
2021/01/29 06:48:01;;;;;;;0.80;0.80;;;19.50;45.60;;;;;;4933938;29;20055;-39
2021/01/29 06:51:05;;;;;;;0.60;0.60;;;19.50;45.60;;;;;;4934285;29;20056;-39
2021/01/29 06:53:55;;;;;;;1.23;1.00;;;19.50;45.60;;;;;;4918812;29;20099;-40
2021/01/29 06:56:22;;;;;;;1.00;0.68;;;19.50;45.60;;;;;;4933966;29;20169;-40
2021/01/29 06:59:06;;;;;;;1.08;0.70;;;19.50;45.60;;;;;;4934467;29;20079;-40
2021/01/29 07:01:49;;;;;;;0.80;0.70;;;19.50;45.60;;;;;;4938724;29;20074;-42
2021/01/29 07:04:24;;;;;;;0.95;0.70;;;19.50;45.60;;;;;;4934334;29;20052;-40
2021/01/29 07:06:55;;;;;;;1.20;0.75;;;19.60;45.70;;;;;;4934301;29;20075;-40
2021/01/29 07:09:40;;;;;;;1.13;0.70;;;19.50;45.60;;;;;;4933881;29;20075;-40
2021/01/29 07:12:36;;;;;;;0.98;0.77;;;19.50;45.60;;;;;;4917975;29;20052;-41
2021/01/29 07:15:32;;;;;;;1.50;1.00;;;19.50;45.60;;;;;;4933929;29;20072;-40
2021/01/29 07:18:05;;;;;;;0.88;0.75;;;19.50;45.60;;;;;;4932779;29;20492;-40
2021/01/29 07:20:54;;;;;;;1.05;0.85;;;19.60;45.70;;;;;;4933737;29;20498;-40
2021/01/29 07:23:58;;;;;;;0.80;0.70;;;19.50;45.60;;;;;;4984068;28;20462;-40
2021/01/29 07:26:58;;;;;;;0.95;0.63;;;19.50;45.60;;;;;;5006791;28;20054;-40
2021/01/29 07:29:45;;;;;;;0.57;0.55;;;19.50;45.60;;;;;;5011634;28;20038;-40
2021/01/29 07:32:24;;;;;;;0.75;0.70;;;19.60;45.70;;;;;;5011551;28;20042;-40
2021/01/29 07:35:07;;;;;;;0.73;0.63;;;19.60;45.70;;;;;;5026943;28;20057;-42
2021/01/29 07:37:57;;;;;;;1.20;0.90;;;19.60;45.70;;;;;;5011095;28;20490;-41
2021/01/29 07:40:40;;;;;;;1.13;0.80;;;19.60;45.70;;;;;;5026787;28;20092;-41
2021/01/29 07:43:29;;;;;;;1.00;0.77;;;19.60;45.80;;;;;;5012060;28;20070;-40
2021/01/29 07:46:17;;;;;;;1.00;0.73;;;19.60;45.80;;;;;;5011990;28;20054;-40
2021/01/29 07:48:53;;;;;;;0.88;0.70;;;19.60;45.80;;;;;;5011711;28;20112;-42
2021/01/29 07:51:34;;;;;;;0.95;0.70;;;19.60;45.70;;;;;;5012784;28;20049;-41
2021/01/29 07:54:55;;;;;;;1.48;0.90;;;19.60;45.70;;;;;;5011668;28;20127;-42
2021/01/29 07:57:44;;;;;;;1.10;0.80;;;19.60;45.70;;;;;;4990903;28;20097;-42
2021/01/29 08:00:44;;;;;;;0.88;0.80;;;19.60;45.70;;;;;;4989298;28;20498;-40
2021/01/29 08:03:47;;;;;;;0.75;0.68;;;19.60;45.70;;;;;;4990910;28;20070;-42
2021/01/29 08:06:52;;;;;;;1.00;0.70;;;19.60;45.70;;;;;;4991121;28;20054;-42
2021/01/29 08:09:40;;;;;;;1.20;0.82;;;19.60;45.70;;;;;;4966548;28;20098;-44
2021/01/29 08:12:11;;;;;;;1.05;0.70;;;19.60;45.70;;;;;;4990551;28;20046;-44
2021/01/29 08:14:55;;;;;;;1.23;0.80;;;19.60;45.70;;;;;;4990679;28;20042;-41
2021/01/29 08:17:59;;;;;;;1.10;0.70;;;19.60;45.70;;;;;;4988644;28;20046;-42
2021/01/29 08:20:44;;;;;;;0.82;0.70;;;19.60;45.70;;;;;;4975534;28;20516;-40
2021/01/29 08:23:42;;;;;;;0.82;0.65;;;19.60;45.70;;;;;;4989300;28;20133;-40
2021/01/29 08:26:17;;;;;;;0.63;0.50;;;19.60;45.70;;;;;;4988570;28;20107;-39
2021/01/29 08:29:07;;;;;;;0.82;0.50;;;19.60;45.70;;;;;;4992496;28;20070;-40
2021/01/29 08:31:57;;;;;;;1.33;1.00;;;19.60;45.70;;;;;;4989500;28;20141;-42
2021/01/29 08:34:59;;;;;;;0.93;0.80;;;19.60;45.70;;;;;;4990649;28;20129;-39
2021/01/29 08:37:42;;;;;;;0.75;0.68;;;19.60;45.70;;;;;;4990799;28;20406;-43
2021/01/29 08:40:22;;;;;;;0.90;0.80;;;19.60;45.70;;;;;;4989928;28;20523;-41
2021/01/29 08:43:16;;;;;;;0.60;0.57;;;19.60;45.70;;;;;;4992663;28;20077;-40
2021/01/29 08:46:07;;;;;;;0.82;0.60;;;19.60;45.70;;;;;;4991184;28;20061;-41
2021/01/29 08:48:39;;;;;;;1.23;0.70;;;19.60;45.70;;;;;;4991351;28;20050;-42
2021/01/29 08:51:32;;;;;;;0.75;0.65;;;19.60;45.70;;;;;;4990698;28;20089;-40
2021/01/29 08:54:35;;;;;;;0.90;0.80;;;19.60;45.70;;;;;;4995360;28;20047;-41
2021/01/29 08:57:05;;;;;;;1.05;0.73;;;19.60;45.70;;;;;;4989616;28;20084;-40
2021/01/29 08:59:39;;;;;;;0.90;0.63;;;19.60;45.70;;;;;;4991120;28;20054;-40
2021/01/29 09:02:24;;;;;;;1.00;0.80;;;19.60;45.70;;;;;;4989434;28;20537;-40
2021/01/29 09:05:02;;;;;;;0.60;0.60;;;19.60;45.70;;;;;;4991212;28;20046;-41
2021/01/29 09:07:35;;;;;;;0.77;0.68;;;19.60;45.70;;;;;;4991947;28;20082;-39
2021/01/29 09:10:10;;;;;;;0.75;0.68;;;19.60;45.70;;;;;;4990713;28;20130;-46
2021/01/29 09:12:38;;;;;;;0.65;0.65;;;19.60;45.70;;;;;;4989627;28;20171;-39
2021/01/29 09:15:22;;;;;;;1.00;0.80;;;19.60;45.70;;;;;;4990495;28;20084;-40
2021/01/29 09:18:04;;;;;;;0.63;0.60;;;19.60;45.70;;;;;;4989609;28;20042;-40
2021/01/29 09:20:48;;;;;;;1.15;0.55;;;19.60;45.70;;;;;;4989535;28;20410;-39
2021/01/29 09:23:33;;;;;;;1.38;1.02;;;19.60;45.70;;;;;;4990991;28;20054;-39
2021/01/29 09:26:03;;;;;;;;;;;19.60;45.70;;;;;;4991269;28;20565;-39
2021/01/29 09:28:37;;;;;;;1.08;0.70;;;19.60;45.70;;;;;;5009954;28;19936;-39
2021/01/29 09:31:23;;;;;;;1.00;0.70;;;19.60;45.70;;;;;;5008340;28;20065;-39
2021/01/29 09:33:57;;;;;;;0.82;0.70;;;19.60;45.80;;;;;;5010441;28;20402;-40
2021/01/29 09:36:52;;;;;;;0.93;0.60;;;19.60;45.70;;;;;;5010334;28;20041;-39
2021/01/29 09:39:57;;;;;;;1.25;0.77;;;19.60;45.70;;;;;;5009108;28;20096;-39
2021/01/29 09:43:22;;;;;;;0.95;0.80;;;19.60;45.70;;;;;;5013283;28;20057;-39
2021/01/29 09:45:54;;;;;;;1.08;0.82;;;19.60;45.70;;;;;;4993372;28;20054;-40
2021/01/29 09:48:24;;;;;;;1.08;0.70;;;19.60;45.70;;;;;;4993137;28;20108;-39
2021/01/29 09:51:27;;;;;;;0.82;0.68;;;19.60;45.70;;;;;;4992734;28;20124;-40
2021/01/29 09:54:26;;;;;;;1.10;0.70;;;19.60;45.80;;;;;;4992924;28;20489;-39
2021/01/29 09:57:01;;;;;;;0.60;0.60;;;19.60;45.70;;;;;;4988145;28;20050;-41
2021/01/29 09:59:38;;;;;;;0.82;0.63;;;19.60;45.70;;;;;;4993085;28;20133;-40
2021/01/29 10:02:24;;;;;;;0.68;0.65;;;19.60;45.70;;;;;;5001050;28;20465;-39
2021/01/29 10:05:12;;;;;;;1.13;0.60;;;19.60;45.70;;;;;;4975904;28;20623;-39
2021/01/29 10:07:46;;;;;;;1.40;0.85;;;19.60;45.70;;;;;;4992815;28;20113;-42
2021/01/29 10:10:51;;;;;;;0.80;0.70;;;19.60;45.70;;;;;;4992600;28;20421;-39
2021/01/29 10:13:36;;;;;;;0.65;0.63;;;19.70;45.80;;;;;;4973696;28;20479;-42
2021/01/29 10:16:37;;;;;;;0.88;0.80;;;19.70;45.80;;;;;;4957571;28;20082;-41
2021/01/29 10:19:28;;;;;;;0.90;0.70;;;19.60;45.70;;;;;;4943117;28;20514;-40
2021/01/29 10:21:57;;;;;;;0.60;0.60;;;19.70;45.80;;;;;;4958280;28;20051;-39
2021/01/29 10:24:32;;;;;;;1.00;0.68;;;19.70;45.80;;;;;;4972079;28;20097;-40
2021/01/29 10:27:09;;;;;;;1.15;0.80;;;19.70;45.80;;;;;;4972544;28;20514;-39
2021/01/29 10:29:40;;;;;;;0.60;0.50;;;19.70;45.80;;;;;;4972281;28;20055;-40
2021/01/29 10:32:15;;;;;;;0.50;0.50;;;19.70;45.80;;;;;;4973315;28;20141;-40
2021/01/29 10:34:44;;;;;;;0.70;0.60;;;19.70;45.80;;;;;;4973214;28;20047;-39
2021/01/29 10:37:23;;;;;;;0.75;0.70;;;19.70;45.80;;;;;;4972560;28;20498;-40
2021/01/29 10:40:07;;;;;;;1.30;0.82;;;19.70;45.70;;;;;;4971400;28;20054;-40
2021/01/29 10:43:02;;;;;;;0.80;0.75;;;19.70;45.70;;;;;;4972478;28;20047;-39
2021/01/29 10:46:27;;;;;;;0.70;0.70;;;19.70;45.80;;;;;;5011383;28;20453;-39
2021/01/29 10:49:26;;;;;;;;;;;19.70;45.70;;;;;;4958419;28;20157;-39
2021/01/29 10:51:58;;;;;;;0.80;0.60;;;19.70;45.80;;;;;;4914849;29;19934;-39
2021/01/29 10:54:34;;;;;;;1.08;0.98;;;19.70;45.80;;;;;;4914972;29;20055;-39
2021/01/29 10:57:10;;;;;;;0.57;0.57;;;19.70;45.80;;;;;;4915105;29;20051;-40
2021/01/29 10:59:49;;;;;;;1.58;0.73;;;19.70;45.80;;;;;;4914920;29;20044;-39
2021/01/29 11:02:36;;;;;;;0.65;0.60;;;19.70;45.80;;;;;;4915159;29;20140;-40
2021/01/29 11:05:11;;;;;;;1.00;0.70;;;19.70;45.80;;;;;;4913683;29;20535;-39
2021/01/29 11:07:43;;;;;;;0.70;0.63;;;19.70;45.80;;;;;;4899003;29;20505;-39
2021/01/29 11:10:22;;;;;;;1.52;0.75;;;19.70;45.80;;;;;;4913695;29;20099;-39
2021/01/29 11:13:03;;;;;;;0.75;0.75;;;19.70;45.80;;;;;;4915007;29;20088;-39
2021/01/29 11:15:46;;;;;;;0.60;0.55;;;19.70;45.80;;;;;;4914950;29;20433;-39
2021/01/29 11:18:29;;;;;;;0.98;0.60;;;19.70;45.80;;;;;;4916681;28;20563;-41
2021/01/29 11:21:11;;;;;;;0.88;0.68;;;19.70;45.80;;;;;;4953772;28;20110;-41
2021/01/29 11:23:59;;;;;;;0.80;0.70;;;19.70;45.80;;;;;;4933527;29;20107;-41
2021/01/29 11:26:49;;;;;;;0.70;0.70;;;19.70;45.80;;;;;;4933085;28;20063;-41
2021/01/29 11:29:26;;;;;;;0.60;0.60;;;19.70;45.80;;;;;;4996202;28;20124;-43
2021/01/29 11:32:32;;;;;;;0.60;0.60;;;19.70;45.80;;;;;;4993033;28;20055;-40
2021/01/29 11:35:05;;;;;;;0.65;0.65;;;19.70;45.80;;;;;;4998538;28;20387;-40
2021/01/29 11:37:42;;;;;;;0.68;0.60;;;19.70;45.80;;;;;;5012605;28;20057;-41
2021/01/29 11:40:17;;;;;;;0.75;0.65;;;19.70;45.70;;;;;;5012396;28;20124;-39
2021/01/29 11:42:52;;;;;;;0.60;0.60;;;19.70;45.70;;;;;;4994646;28;20145;-39
2021/01/29 11:45:27;;;;;;;0.88;0.70;;;19.70;45.80;;;;;;4994113;28;20411;-43
2021/01/29 11:48:15;;;;;;;0.50;0.38;;;19.70;45.70;;;;;;5010781;28;20054;-39
2021/01/29 11:50:45;;;;;;;1.05;0.82;;;19.70;45.70;;;;;;5012190;28;20049;-43
2021/01/29 11:53:18;;;;;;;0.70;0.55;;;19.80;45.80;;;;;;5012892;28;20100;-40
2021/01/29 11:56:19;;;;;;;0.65;0.60;;;19.70;45.70;;;;;;5012258;28;20073;-41
2021/01/29 11:58:59;;;;;;;1.10;0.70;;;19.80;45.80;;;;;;5012077;28;20053;-39
2021/01/29 12:01:58;;;;;;;0.65;0.50;;;19.80;45.80;;;;;;5028330;28;20041;-39
2021/01/29 12:04:50;;;;;;;0.70;0.60;;;19.80;45.80;;;;;;4995117;28;20100;-40
2021/01/29 12:07:24;;;;;;;0.85;0.68;;;19.80;45.80;;;;;;4996553;28;20108;-41
2021/01/29 12:09:59;;;;;;;1.13;0.60;;;19.80;45.80;;;;;;5010029;28;20082;-39
2021/01/29 12:12:48;;;;;;;0.88;0.70;;;19.80;45.80;;;;;;4995272;28;20041;-40
2021/01/29 12:15:18;;;;;;;0.60;0.60;;;19.80;45.80;;;;;;4995975;28;20042;-40
2021/01/29 12:17:57;;;;;;;0.93;0.80;;;19.80;45.80;;;;;;4994143;28;20113;-40
2021/01/29 12:20:34;;;;;;;1.42;0.88;;;19.80;45.80;;;;;;4996308;28;20052;-39
2021/01/29 12:23:37;;;;;;;0.60;0.60;;;19.80;46.30;;;;;;5010210;28;20533;-39
2021/01/29 12:26:13;;;;;;;0.50;0.50;;;19.80;45.70;;;;;;5019113;28;20054;-40
2021/01/29 12:29:26;;;;;;;0.70;0.60;;;19.80;45.80;;;;;;4994955;28;20054;-41
2021/01/29 12:32:24;;;;;;;0.60;0.55;;;19.80;45.70;;;;;;4997226;28;20049;-39
2021/01/29 12:35:16;;;;;;;0.65;0.57;;;19.80;45.70;;;;;;5012163;28;20057;-39
2021/01/29 12:38:12;;;;;;;0.77;0.50;;;19.80;45.70;;;;;;5010965;28;20054;-39
2021/01/29 12:40:47;;;;;;;1.00;0.60;;;19.80;45.70;;;;;;5011108;28;20108;-39
2021/01/29 12:43:37;;;;;;;0.70;0.50;;;19.80;45.80;;;;;;5011069;28;20116;-39
2021/01/29 12:46:22;;;;;;;0.90;0.73;;;19.80;45.70;;;;;;5011023;28;20104;-39
2021/01/29 12:49:09;;;;;;;0.70;0.60;;;19.80;45.70;;;;;;5010573;28;20100;-39
2021/01/29 12:51:52;;;;;;;0.88;0.70;;;19.80;45.80;;;;;;5010587;28;20490;-39
2021/01/29 12:54:33;;;;;;;0.80;0.60;;;19.90;45.80;;;;;;5010778;28;20050;-39
2021/01/29 12:57:16;;;;;;;0.70;0.60;;;19.80;45.80;;;;;;5010465;28;20042;-39
2021/01/29 12:59:50;;;;;;;0.82;0.70;;;19.80;45.80;;;;;;5010810;28;20096;-41
2021/01/29 13:02:45;;;;;;;0.75;0.60;;;19.80;45.80;;;;;;5010917;28;20050;-40
2021/01/29 13:05:27;;;;;;;0.85;0.70;;;19.80;45.80;;;;;;5011544;28;20045;-41
2021/01/29 13:08:15;;;;;;;0.50;0.50;;;19.80;45.80;;;;;;5010421;28;20076;-40
2021/01/29 13:10:56;;;;;;;1.10;0.77;;;19.80;45.80;;;;;;5010567;28;20046;-39
2021/01/29 13:14:08;;;;;;;1.08;0.75;;;19.80;45.80;;;;;;5024348;28;20468;-39
2021/01/29 13:17:04;;;;;;;0.70;0.70;;;19.80;45.80;;;;;;5007340;28;20460;-39
2021/01/29 13:19:36;;;;;;;0.55;0.50;;;19.80;45.80;;;;;;5014452;28;20050;-39
2021/01/29 13:22:35;;;;;;;1.00;0.70;;;19.80;45.80;;;;;;5014768;28;20526;-41
2021/01/29 13:25:28;;;;;;;0.70;0.57;;;19.80;45.80;;;;;;5014527;28;20074;-40
2021/01/29 13:28:05;;;;;;;0.80;0.60;;;19.80;45.80;;;;;;4996394;28;20058;-40
2021/01/29 13:30:35;;;;;;;0.93;0.60;;;19.80;45.80;;;;;;5013588;28;20100;-40
2021/01/29 13:33:18;;;;;;;0.77;0.40;;;19.80;45.80;;;;;;5016070;28;20106;-39
2021/01/29 13:35:49;;;;;;;1.02;0.70;;;19.80;45.80;;;;;;5014715;28;20042;-39
2021/01/29 13:38:30;;;;;;;0.73;0.60;;;19.80;45.80;;;;;;5014395;28;20088;-39
2021/01/29 13:41:34;;;;;;;0.52;0.52;;;19.80;45.80;;;;;;5013931;28;20449;-39
2021/01/29 13:44:38;;;;;;;0.70;0.70;;;19.80;45.80;;;;;;5014438;28;20053;-38
2021/01/29 13:47:09;;;;;;;0.67;0.57;;;19.80;45.80;;;;;;4999357;28;20082;-42
2021/01/29 13:49:41;;;;;;;0.70;0.60;;;19.80;45.80;;;;;;5015210;28;20281;-39
2021/01/29 13:52:25;;;;;;;0.80;0.57;;;19.80;45.80;;;;;;5013212;28;20157;-40
2021/01/29 13:54:53;;;;;;;0.45;0.40;;;19.80;45.80;;;;;;5014126;28;20564;-39
2021/01/29 13:57:52;;;;;;;0.77;0.60;;;19.80;45.80;;;;;;5015466;28;20127;-40
2021/01/29 14:00:24;;;;;;;0.70;0.60;;;19.80;45.80;;;;;;5012529;28;20054;-40
2021/01/29 14:03:26;;;;;;;0.90;0.57;;;19.90;45.90;;;;;;5029378;28;20052;-41
2021/01/29 14:05:52;;;;;;;1.10;0.70;;;19.80;45.80;;;;;;4997613;28;20045;-39